Time;durP1;ratioP1;P1;durP2;ratioP2;P2;SDS_P1;SDS_P2;PMS_P1;PMS_P2;Temp;Humidity;BMP_temperature;BMP_pressure;BME280_temperature;BME280_humidity;BME280_pressure;Samples;Min_cycle;Max_cycle;Signal;HPM_P1;HPM_P2
2021/04/07 00:01:39;;;;;;;9.20;2.20;;;1.30;99.90;;;;;;5053695;28;20047;-59
2021/04/07 00:04:05;;;;;;;9.90;1.77;;;1.30;99.90;;;;;;5053491;28;20036;-59
2021/04/07 00:06:34;;;;;;;7.22;1.80;;;1.30;99.90;;;;;;5053370;28;20114;-59
2021/04/07 00:09:00;;;;;;;8.45;1.83;;;1.30;99.90;;;;;;5053650;28;20037;-59
2021/04/07 00:11:26;;;;;;;9.27;2.03;;;1.30;99.90;;;;;;5053612;28;20028;-60
2021/04/07 00:13:52;;;;;;;12.35;2.03;;;1.20;99.90;;;;;;5052174;28;20033;-60
2021/04/07 00:16:17;;;;;;;8.48;1.98;;;1.20;99.90;;;;;;5053573;28;20465;-60
2021/04/07 00:18:43;;;;;;;7.50;1.70;;;1.20;99.90;;;;;;5053699;28;20072;-60
2021/04/07 00:21:08;;;;;;;7.32;1.42;;;1.10;99.90;;;;;;5053560;28;20101;-60
2021/04/07 00:23:34;;;;;;;7.65;1.60;;;1.10;99.90;;;;;;5053506;28;20363;-59
2021/04/07 00:26:00;;;;;;;8.50;1.77;;;1.00;99.90;;;;;;5053349;28;20036;-59
2021/04/07 00:28:25;;;;;;;5.55;1.50;;;1.00;99.90;;;;;;5053279;28;20032;-59
2021/04/07 00:30:51;;;;;;;8.95;1.40;;;1.00;99.90;;;;;;5053182;28;20118;-59
2021/04/07 00:33:17;;;;;;;6.55;1.75;;;1.00;99.90;;;;;;5053508;28;20360;-59
2021/04/07 00:35:43;;;;;;;8.23;1.83;;;1.10;99.90;;;;;;5053043;28;20370;-60
2021/04/07 00:38:11;;;;;;;10.32;1.67;;;1.10;99.90;;;;;;5053290;28;20021;-59
2021/04/07 00:40:37;;;;;;;8.57;2.03;;;1.10;99.90;;;;;;5052030;28;20078;-59
2021/04/07 00:43:03;;;;;;;8.93;1.83;;;1.10;99.90;;;;;;5051724;28;20112;-59
2021/04/07 00:45:29;;;;;;;7.50;1.42;;;1.20;99.90;;;;;;5052934;28;20029;-59
2021/04/07 00:47:55;;;;;;;8.05;1.70;;;1.20;99.90;;;;;;5053174;28;20054;-59
2021/04/07 00:50:23;;;;;;;7.03;1.65;;;1.20;99.90;;;;;;5052550;28;20063;-59
2021/04/07 00:52:49;;;;;;;8.32;1.70;;;1.20;99.90;;;;;;5052447;28;20021;-59
2021/04/07 00:55:21;;;;;;;10.20;2.45;;;1.20;99.90;;;;;;5052104;28;20025;-59
2021/04/07 00:57:48;;;;;;;9.60;2.10;;;1.20;99.90;;;;;;5052904;28;20036;-59
2021/04/07 01:00:15;;;;;;;11.93;2.00;;;1.20;99.90;;;;;;5052771;28;20029;-59
2021/04/07 01:02:41;;;;;;;12.10;2.15;;;1.20;99.90;;;;;;5052326;28;20021;-59
2021/04/07 01:05:09;;;;;;;7.28;1.60;;;1.30;99.90;;;;;;5052334;28;20040;-59
2021/04/07 01:07:35;;;;;;;14.45;2.17;;;1.30;99.90;;;;;;5052592;28;20050;-59
2021/04/07 01:10:03;;;;;;;9.05;2.15;;;1.50;99.90;;;;;;5052530;28;20079;-59
2021/04/07 01:12:29;;;;;;;15.90;2.13;;;1.50;99.90;;;;;;5052740;28;20035;-59
2021/04/07 01:14:55;;;;;;;6.72;1.65;;;1.50;99.90;;;;;;5050890;28;20025;-59
2021/04/07 01:17:21;;;;;;;10.38;1.80;;;1.40;99.90;;;;;;5051346;28;20496;-59
2021/04/07 01:19:46;;;;;;;14.27;1.88;;;1.40;99.90;;;;;;5051642;28;20362;-59
2021/04/07 01:22:15;;;;;;;8.73;1.80;;;1.30;99.90;;;;;;5052566;28;20070;-59
2021/04/07 01:24:41;;;;;;;8.30;1.52;;;1.30;99.90;;;;;;5052380;28;20430;-59
2021/04/07 01:27:07;;;;;;;12.88;1.70;;;1.30;99.90;;;;;;5052591;28;20678;-59
2021/04/07 01:29:32;;;;;;;9.48;1.88;;;1.20;99.90;;;;;;5052386;28;20155;-59
2021/04/07 01:31:58;;;;;;;8.52;1.52;;;1.20;99.90;;;;;;5052309;28;20060;-59
2021/04/07 01:34:31;;;;;;;7.78;2.30;;;1.20;99.90;;;;;;5052287;28;20561;-59
2021/04/07 01:36:58;;;;;;;9.18;1.80;;;1.10;99.90;;;;;;5052240;28;20029;-59
2021/04/07 01:39:25;;;;;;;6.30;1.80;;;1.10;99.90;;;;;;5051591;28;20025;-59
2021/04/07 01:41:51;;;;;;;7.93;1.55;;;1.10;99.90;;;;;;5052177;28;20025;-59
2021/04/07 01:44:18;;;;;;;6.53;1.17;;;1.20;99.90;;;;;;5050640;28;20047;-59
2021/04/07 01:46:45;;;;;;;5.22;1.60;;;1.20;99.90;;;;;;5052206;28;20040;-59
2021/04/07 01:49:12;;;;;;;10.55;1.65;;;1.30;99.90;;;;;;5051758;28;20104;-59
2021/04/07 01:51:38;;;;;;;7.03;1.58;;;1.30;99.90;;;;;;5050553;28;20118;-59
2021/04/07 01:54:07;;;;;;;9.18;1.75;;;1.30;99.90;;;;;;5050144;28;20033;-59
2021/04/07 01:56:44;;;;;;;11.05;1.85;;;1.40;99.90;;;;;;5052056;28;20028;-59
2021/04/07 01:59:09;;;;;;;7.35;1.20;;;1.40;99.90;;;;;;5051679;28;20029;-59
2021/04/07 02:01:38;;;;;;;7.85;1.17;;;1.50;99.90;;;;;;5051895;28;20027;-59
2021/04/07 02:04:05;;;;;;;6.53;1.00;;;1.50;99.90;;;;;;5050441;28;20056;-59
2021/04/07 02:06:31;;;;;;;6.97;1.33;;;1.60;99.90;;;;;;5050250;28;20052;-59
2021/04/07 02:08:57;;;;;;;6.32;1.38;;;1.70;99.90;;;;;;5050315;28;20067;-59
2021/04/07 02:11:22;;;;;;;9.45;1.63;;;1.70;99.90;;;;;;5051666;28;20120;-59
2021/04/07 02:13:49;;;;;;;15.57;2.58;;;1.70;99.90;;;;;;5051632;28;20111;-59
2021/04/07 02:16:15;;;;;;;15.18;2.65;;;1.70;99.90;;;;;;5050402;28;20021;-59
2021/04/07 02:18:44;;;;;;;13.88;2.90;;;1.70;99.90;;;;;;5051589;28;20025;-59
2021/04/07 02:21:11;;;;;;;9.88;2.53;;;1.80;99.90;;;;;;5051224;28;20017;-59
2021/04/07 02:23:38;;;;;;;9.30;2.25;;;1.70;99.90;;;;;;5049746;28;20127;-59
2021/04/07 02:26:04;;;;;;;7.80;2.10;;;1.60;99.90;;;;;;5051644;28;20036;-59
2021/04/07 02:28:30;;;;;;;12.18;2.63;;;1.60;99.90;;;;;;5051628;28;20108;-59
2021/04/07 02:30:56;;;;;;;11.82;2.13;;;1.50;99.90;;;;;;5051350;28;20116;-59
2021/04/07 02:33:22;;;;;;;15.32;2.50;;;1.50;99.90;;;;;;5051860;28;20025;-59
2021/04/07 02:35:48;;;;;;;11.10;2.00;;;1.50;99.90;;;;;;5051325;28;20117;-59
2021/04/07 02:38:14;;;;;;;7.15;1.95;;;1.40;99.90;;;;;;5051930;28;20374;-59
2021/04/07 02:40:39;;;;;;;10.13;1.83;;;1.30;99.90;;;;;;5049982;28;20029;-59
2021/04/07 02:43:05;;;;;;;9.40;1.60;;;1.30;99.90;;;;;;5051419;28;20379;-59
2021/04/07 02:45:31;;;;;;;8.55;2.10;;;1.20;99.90;;;;;;5051236;28;20437;-59
2021/04/07 02:47:57;;;;;;;9.77;2.10;;;1.20;99.90;;;;;;5051351;28;20083;-59
2021/04/07 02:50:22;;;;;;;12.80;2.22;;;1.10;99.90;;;;;;5050920;28;20047;-59
2021/04/07 02:52:48;;;;;;;10.10;2.35;;;1.00;99.90;;;;;;5051434;28;20117;-59
2021/04/07 02:55:14;;;;;;;12.75;2.20;;;1.10;99.90;;;;;;5050987;28;20033;-59
2021/04/07 02:57:40;;;;;;;12.20;2.22;;;1.10;99.90;;;;;;5050868;28;20033;-59
2021/04/07 03:00:08;;;;;;;10.55;2.00;;;1.20;99.90;;;;;;5050984;28;20021;-59
2021/04/07 03:02:33;;;;;;;7.85;2.47;;;1.20;99.90;;;;;;5049794;28;20045;-59
2021/04/07 03:04:59;;;;;;;12.20;2.50;;;1.20;99.90;;;;;;5049429;28;20482;-59
2021/04/07 03:07:26;;;;;;;9.85;2.97;;;1.20;99.90;;;;;;5051123;28;20111;-59
2021/04/07 03:09:51;;;;;;;11.88;2.38;;;1.10;99.90;;;;;;5051264;28;20056;-59
2021/04/07 03:12:17;;;;;;;11.10;2.20;;;1.10;99.90;;;;;;5050978;28;20386;-59
2021/04/07 03:14:43;;;;;;;13.43;2.90;;;1.20;99.90;;;;;;5049687;28;20043;-59
2021/04/07 03:17:10;;;;;;;14.68;2.40;;;1.10;99.90;;;;;;5052538;28;20041;-59
2021/04/07 03:19:36;;;;;;;15.80;2.70;;;1.20;99.90;;;;;;5053707;28;20025;-59
2021/04/07 03:22:02;;;;;;;15.73;2.70;;;1.20;99.90;;;;;;5054725;28;20063;-59
2021/04/07 03:24:27;;;;;;;14.40;2.90;;;1.20;99.90;;;;;;5054395;28;20028;-59
2021/04/07 03:26:53;;;;;;;10.77;2.97;;;1.30;99.90;;;;;;5054794;28;20055;-59
2021/04/07 03:29:19;;;;;;;9.00;2.97;;;1.30;99.90;;;;;;5053232;28;20172;-59
2021/04/07 03:31:44;;;;;;;15.63;3.15;;;1.30;99.90;;;;;;5054790;28;20283;-59
2021/04/07 03:34:10;;;;;;;11.95;3.10;;;1.30;99.90;;;;;;5054492;28;20079;-59
2021/04/07 03:36:35;;;;;;;8.45;3.30;;;1.40;99.90;;;;;;5054558;28;20021;-59
2021/04/07 03:39:01;;;;;;;11.65;2.63;;;1.40;99.90;;;;;;5053242;28;20013;-59
2021/04/07 03:41:27;;;;;;;12.98;2.80;;;1.40;99.90;;;;;;5054638;28;20072;-59
2021/04/07 03:43:56;;;;;;;10.52;2.72;;;1.40;99.90;;;;;;5054278;28;20029;-59
2021/04/07 03:46:22;;;;;;;16.63;3.22;;;1.40;99.90;;;;;;5054200;28;20032;-59
2021/04/07 03:48:48;;;;;;;17.42;3.67;;;1.40;99.90;;;;;;5054353;28;20029;-59
2021/04/07 03:51:13;;;;;;;12.93;2.80;;;1.40;99.90;;;;;;5053801;28;20033;-59
2021/04/07 03:53:39;;;;;;;10.55;2.55;;;1.40;99.90;;;;;;5052500;28;20033;-59
2021/04/07 03:56:06;;;;;;;14.98;3.33;;;1.40;99.90;;;;;;5054327;28;20047;-59
2021/04/07 03:58:31;;;;;;;13.60;3.00;;;1.40;99.90;;;;;;5054092;28;20024;-59
2021/04/07 04:00:57;;;;;;;13.15;3.38;;;1.40;99.90;;;;;;5054255;28;20017;-59
2021/04/07 04:03:23;;;;;;;11.68;3.13;;;1.40;99.90;;;;;;5053983;28;20031;-59
2021/04/07 04:05:48;;;;;;;18.35;3.20;;;1.40;99.90;;;;;;5052865;28;20385;-59
2021/04/07 04:08:15;;;;;;;25.88;4.40;;;1.40;99.90;;;;;;5054242;28;20083;-59
2021/04/07 04:10:40;;;;;;;9.52;3.20;;;1.40;99.90;;;;;;5054151;28;20561;-59
2021/04/07 04:13:06;;;;;;;15.05;2.80;;;1.30;99.90;;;;;;5053995;28;20128;-59
2021/04/07 04:15:33;;;;;;;19.33;3.53;;;1.30;99.90;;;;;;5054029;28;20063;-59
2021/04/07 04:17:59;;;;;;;12.02;3.28;;;1.30;99.90;;;;;;5054026;28;20497;-59
2021/04/07 04:20:25;;;;;;;9.90;2.85;;;1.30;99.90;;;;;;5053498;28;20025;-59
2021/04/07 04:22:50;;;;;;;10.82;3.17;;;1.30;99.90;;;;;;5052594;28;20025;-59
2021/04/07 04:25:19;;;;;;;9.50;2.85;;;1.30;99.90;;;;;;5053332;28;20051;-59
2021/04/07 04:27:46;;;;;;;17.15;3.13;;;1.30;99.90;;;;;;5052347;28;20605;-59
2021/04/07 04:30:14;;;;;;;17.25;3.25;;;1.30;99.90;;;;;;5053728;28;20036;-59
2021/04/07 04:32:40;;;;;;;14.55;3.22;;;1.30;99.90;;;;;;5053404;28;20040;-59
2021/04/07 04:35:07;;;;;;;12.50;2.97;;;1.40;99.90;;;;;;5053025;28;20111;-59
2021/04/07 04:37:36;;;;;;;8.60;2.85;;;1.40;99.90;;;;;;5053485;28;20048;-59
2021/04/07 04:40:03;;;;;;;13.57;3.20;;;1.40;99.90;;;;;;5053382;28;20052;-59
2021/04/07 04:42:28;;;;;;;14.30;3.38;;;1.50;99.90;;;;;;5053498;28;20033;-59
2021/04/07 04:44:54;;;;;;;13.43;3.40;;;1.40;99.90;;;;;;5053144;28;20027;-59
2021/04/07 04:47:20;;;;;;;9.18;2.72;;;1.50;99.90;;;;;;5053398;28;20493;-59
2021/04/07 04:49:45;;;;;;;17.58;3.42;;;1.50;99.90;;;;;;5052971;28;20041;-59
2021/04/07 04:52:11;;;;;;;13.80;3.28;;;1.50;99.90;;;;;;5052878;28;20082;-59
2021/04/07 04:54:37;;;;;;;13.98;3.25;;;1.60;99.90;;;;;;5052260;28;20036;-59
2021/04/07 04:57:02;;;;;;;15.20;2.55;;;1.60;99.90;;;;;;5053415;28;20028;-59
2021/04/07 04:59:28;;;;;;;14.82;3.17;;;1.60;99.90;;;;;;5052952;28;20600;-60
2021/04/07 05:01:54;;;;;;;12.00;2.60;;;1.60;99.90;;;;;;5052651;28;20123;-60
2021/04/07 05:04:19;;;;;;;10.27;2.83;;;1.60;99.90;;;;;;5052783;28;20095;-59
2021/04/07 05:06:45;;;;;;;13.77;3.13;;;1.70;99.90;;;;;;5051764;28;20493;-59
2021/04/07 05:09:10;;;;;;;17.70;3.00;;;1.70;99.90;;;;;;5052849;28;20029;-59
2021/04/07 05:11:36;;;;;;;15.57;3.20;;;1.70;99.90;;;;;;5052760;28;20033;-59
2021/04/07 05:14:03;;;;;;;14.77;2.88;;;1.70;99.90;;;;;;5051038;28;20440;-59
2021/04/07 05:16:29;;;;;;;14.60;3.55;;;1.80;99.90;;;;;;5050939;28;20086;-59
2021/04/07 05:18:55;;;;;;;9.18;2.55;;;1.80;99.90;;;;;;5050941;28;20087;-59
2021/04/07 05:21:21;;;;;;;14.27;3.15;;;1.90;99.90;;;;;;5052491;28;20016;-59
2021/04/07 05:23:46;;;;;;;14.02;2.85;;;1.80;99.90;;;;;;5050530;28;20075;-59
2021/04/07 05:26:12;;;;;;;14.82;3.00;;;1.90;99.90;;;;;;5052402;28;20021;-59
2021/04/07 05:28:42;;;;;;;13.20;3.13;;;1.80;99.90;;;;;;5052248;28;20104;-59
2021/04/07 05:31:11;;;;;;;10.77;2.90;;;1.80;99.90;;;;;;5052079;28;20024;-59
2021/04/07 05:33:38;;;;;;;14.45;3.30;;;1.80;99.90;;;;;;5050603;28;20025;-59
2021/04/07 05:36:07;;;;;;;13.05;2.85;;;1.70;99.90;;;;;;5052486;28;20082;-59
2021/04/07 05:38:33;;;;;;;12.50;3.20;;;1.70;99.90;;;;;;5052625;28;20426;-59
2021/04/07 05:41:00;;;;;;;15.82;2.88;;;1.70;99.90;;;;;;5050505;28;20021;-59
2021/04/07 05:43:27;;;;;;;17.73;2.35;;;1.80;99.90;;;;;;5052216;28;20052;-59
2021/04/07 05:45:53;;;;;;;10.65;2.75;;;1.80;99.90;;;;;;5052070;28;20025;-59
2021/04/07 05:48:19;;;;;;;10.98;2.75;;;1.80;99.90;;;;;;5052102;28;20025;-59
2021/04/07 05:50:47;;;;;;;11.30;2.67;;;1.80;99.90;;;;;;5051587;28;20103;-59
2021/04/07 05:53:13;;;;;;;15.90;3.20;;;1.90;99.90;;;;;;5051318;28;20060;-59
2021/04/07 05:55:46;;;;;;;15.52;2.85;;;1.90;99.90;;;;;;5051649;28;20080;-59
2021/04/07 05:58:13;;;;;;;10.32;2.70;;;2.00;99.90;;;;;;5051939;28;20021;-59
2021/04/07 06:00:39;;;;;;;7.72;2.40;;;2.00;99.90;;;;;;5052303;28;20032;-59
2021/04/07 06:03:06;;;;;;;9.98;2.38;;;2.00;99.90;;;;;;5051706;28;20052;-59
2021/04/07 06:05:33;;;;;;;9.98;2.17;;;2.00;99.90;;;;;;5051547;28;20078;-59
2021/04/07 06:08:00;;;;;;;6.90;1.55;;;2.20;99.90;;;;;;5051729;28;20037;-59
2021/04/07 06:10:29;;;;;;;9.38;1.75;;;2.20;99.90;;;;;;5051658;28;20021;-59
2021/04/07 06:12:55;;;;;;;5.57;1.65;;;2.30;99.90;;;;;;5050927;28;20059;-59
2021/04/07 06:15:22;;;;;;;11.20;2.20;;;2.40;99.90;;;;;;5051502;28;20377;-59
2021/04/07 06:17:58;;;;;;;6.65;1.80;;;2.50;99.90;;;;;;5051867;28;20018;-59
2021/04/07 06:20:26;;;;;;;5.47;1.35;;;2.60;99.90;;;;;;5051257;28;20428;-59
2021/04/07 06:22:53;;;;;;;3.92;1.40;;;2.60;99.90;;;;;;5051398;28;20021;-59
2021/04/07 06:25:19;;;;;;;10.02;1.98;;;2.60;99.90;;;;;;5049792;28;20025;-59
2021/04/07 06:27:50;;;;;;;7.82;2.08;;;2.60;99.90;;;;;;5051271;28;20025;-59
2021/04/07 06:30:16;;;;;;;7.72;1.88;;;2.60;99.90;;;;;;5051225;28;20516;-59
2021/04/07 06:32:42;;;;;;;7.57;1.92;;;2.70;99.90;;;;;;5051166;28;20104;-59
2021/04/07 06:35:08;;;;;;;10.88;2.42;;;2.60;99.90;;;;;;5049788;28;20116;-59
2021/04/07 06:37:34;;;;;;;7.22;2.08;;;2.60;99.90;;;;;;5051263;28;20029;-59
2021/04/07 06:40:00;;;;;;;7.22;1.38;;;2.60;99.90;;;;;;5051080;28;20024;-59
2021/04/07 06:42:25;;;;;;;5.20;1.30;;;2.70;99.90;;;;;;5050973;28;20036;-59
2021/04/07 06:44:51;;;;;;;6.85;1.95;;;2.80;99.90;;;;;;5051007;28;20051;-59
2021/04/07 06:47:17;;;;;;;5.20;1.40;;;2.90;99.90;;;;;;5051054;28;20032;-59
2021/04/07 06:49:43;;;;;;;5.05;1.42;;;2.90;99.90;;;;;;5050860;28;20040;-59
2021/04/07 06:52:18;;;;;;;8.70;1.67;;;2.90;99.90;;;;;;5052457;28;20530;-59
2021/04/07 06:54:46;;;;;;;4.60;1.75;;;2.70;99.90;;;;;;5054824;28;20052;-59
2021/04/07 06:57:14;;;;;;;6.13;1.60;;;2.60;99.90;;;;;;5054804;28;20045;-59
2021/04/07 06:59:42;;;;;;;7.57;1.95;;;2.60;99.90;;;;;;5053599;28;20504;-59
2021/04/07 07:02:08;;;;;;;6.85;1.65;;;2.50;99.90;;;;;;5053441;28;20511;-59
2021/04/07 07:04:34;;;;;;;8.43;1.58;;;2.40;99.90;;;;;;5054552;28;20533;-59
2021/04/07 07:07:00;;;;;;;5.70;1.80;;;2.40;99.90;;;;;;5054721;28;20032;-59
2021/04/07 07:09:25;;;;;;;6.68;1.77;;;2.50;99.90;;;;;;5054779;28;20036;-59
2021/04/07 07:11:51;;;;;;;5.57;1.90;;;2.50;99.90;;;;;;5055331;28;20029;-59
2021/04/07 07:14:19;;;;;;;8.75;1.95;;;2.60;99.90;;;;;;5054786;28;20035;-59
2021/04/07 07:16:46;;;;;;;8.43;1.77;;;2.60;99.90;;;;;;5053501;28;20021;-59
2021/04/07 07:19:28;;;;;;;6.40;1.70;;;2.60;99.90;;;;;;5054532;28;20025;-59
2021/04/07 07:22:02;;;;;;;7.03;1.90;;;2.60;99.90;;;;;;5054478;28;20028;-59
2021/04/07 07:24:32;;;;;;;11.15;1.70;;;2.70;99.90;;;;;;5054281;28;20053;-59
2021/04/07 07:26:59;;;;;;;9.10;1.88;;;2.90;99.90;;;;;;5053201;28;20029;-59
2021/04/07 07:29:26;;;;;;;6.28;1.77;;;2.90;99.90;;;;;;5055170;28;20104;-60
2021/04/07 07:31:58;;;;;;;6.57;2.20;;;2.90;99.90;;;;;;5055035;28;20017;-60
2021/04/07 07:34:26;;;;;;;6.75;1.38;;;2.90;99.90;;;;;;5054953;28;20508;-60
2021/04/07 07:36:52;;;;;;;10.95;2.28;;;2.80;99.90;;;;;;5054407;28;20032;-60
2021/04/07 07:39:28;;;;;;;10.35;2.13;;;2.80;99.90;;;;;;5054670;28;20485;-60
2021/04/07 07:42:01;;;;;;;9.68;2.75;;;2.90;99.90;;;;;;5054354;28;20028;-60
2021/04/07 07:44:28;;;;;;;6.15;1.83;;;2.90;99.90;;;;;;5054388;28;20024;-59
2021/04/07 07:47:04;;;;;;;9.63;1.90;;;3.10;99.90;;;;;;5054420;28;20092;-59
2021/04/07 07:49:31;;;;;;;9.82;2.22;;;3.10;99.90;;;;;;5054027;28;20029;-59
2021/04/07 07:51:57;;;;;;;9.70;2.17;;;3.20;99.90;;;;;;5054165;28;20420;-59
2021/04/07 07:54:25;;;;;;;8.82;2.28;;;3.20;99.90;;;;;;5054958;28;20043;-59
2021/04/07 07:56:52;;;;;;;10.05;2.45;;;3.30;99.90;;;;;;5054009;28;20052;-59
2021/04/07 07:59:28;;;;;;;10.43;2.65;;;3.20;99.90;;;;;;5053900;28;20159;-59
2021/04/07 08:01:55;;;;;;;11.55;2.60;;;3.10;99.90;;;;;;5053982;28;20075;-59
2021/04/07 08:04:21;;;;;;;10.32;3.78;;;3.00;99.90;;;;;;5053705;28;20030;-59
2021/04/07 08:06:47;;;;;;;13.40;2.80;;;3.00;99.90;;;;;;5054229;28;20420;-57
2021/04/07 08:09:12;;;;;;;13.73;2.85;;;2.90;99.90;;;;;;5053975;28;20020;-56
2021/04/07 08:11:44;;;;;;;8.73;2.40;;;3.00;99.90;;;;;;5052286;28;20036;-57
2021/04/07 08:14:18;;;;;;;10.52;2.35;;;3.00;99.90;;;;;;5053902;28;20025;-56
2021/04/07 08:16:45;;;;;;;10.25;2.38;;;3.10;99.90;;;;;;5053795;28;20116;-57
2021/04/07 08:19:13;;;;;;;8.77;2.25;;;3.30;99.90;;;;;;5054038;28;20067;-57
2021/04/07 08:21:40;;;;;;;8.90;2.22;;;3.50;99.90;;;;;;5053893;28;20502;-57
2021/04/07 08:24:10;;;;;;;7.18;2.42;;;3.80;99.90;;;;;;5053400;28;20029;-57
2021/04/07 08:26:37;;;;;;;9.57;2.35;;;4.10;99.90;;;;;;5053077;28;20033;-57
2021/04/07 08:29:07;;;;;;;7.90;2.08;;;4.40;99.90;;;;;;5051589;28;20041;-57
2021/04/07 08:31:33;;;;;;;12.18;2.60;;;4.60;99.90;;;;;;5053302;28;20048;-57
2021/04/07 08:34:02;;;;;;;9.18;2.42;;;4.60;99.90;;;;;;5051488;28;20025;-57
2021/04/07 08:36:28;;;;;;;9.18;2.17;;;4.90;99.90;;;;;;5052929;28;20040;-57
2021/04/07 08:39:06;;;;;;;8.48;1.80;;;5.10;99.90;;;;;;5053560;28;20025;-57
2021/04/07 08:41:32;;;;;;;11.40;2.35;;;5.20;99.90;;;;;;5052694;28;20112;-56
2021/04/07 08:44:00;;;;;;;10.00;2.53;;;5.10;99.90;;;;;;5053001;28;20481;-56
2021/04/07 08:46:28;;;;;;;7.78;2.75;;;5.20;99.90;;;;;;5051704;28;20110;-56
2021/04/07 08:48:55;;;;;;;16.02;3.03;;;5.30;99.90;;;;;;5052730;28;20434;-56
2021/04/07 08:51:24;;;;;;;9.75;2.30;;;5.30;99.90;;;;;;5051398;28;20041;-56
2021/04/07 08:53:55;;;;;;;9.27;2.28;;;5.30;99.90;;;;;;5051611;28;20501;-56
2021/04/07 08:56:57;;;;;;;10.70;2.20;;;5.30;99.90;;;;;;5052976;28;20053;-56
2021/04/07 08:59:24;;;;;;;9.63;2.05;;;5.50;99.90;;;;;;5033125;28;20075;-56
2021/04/07 09:02:05;;;;;;;7.45;2.35;;;5.50;99.90;;;;;;5053273;28;20405;-56
2021/04/07 09:04:35;;;;;;;12.10;2.13;;;5.60;99.90;;;;;;5052376;28;20032;-56
2021/04/07 09:07:01;;;;;;;15.00;2.15;;;5.90;99.90;;;;;;5052441;28;20047;-56
2021/04/07 09:09:33;;;;;;;9.45;2.05;;;6.00;99.90;;;;;;5051678;28;20033;-56
2021/04/07 09:12:00;;;;;;;6.53;2.03;;;6.20;99.90;;;;;;5050927;28;20393;-57
2021/04/07 09:14:27;;;;;;;9.13;2.42;;;6.30;99.90;;;;;;5051353;28;20462;-57
2021/04/07 09:17:02;;;;;;;12.27;2.60;;;6.40;99.90;;;;;;5052324;28;20496;-57
2021/04/07 09:19:30;;;;;;;8.70;2.80;;;6.30;99.90;;;;;;5052156;28;20021;-57
2021/04/07 09:22:04;;;;;;;7.80;2.42;;;6.30;99.90;;;;;;5052063;28;20447;-57
2021/04/07 09:24:37;;;;;;;11.20;3.50;;;6.50;99.90;;;;;;5051863;28;20040;-57
2021/04/07 09:27:03;;;;;;;12.52;2.33;;;6.60;99.90;;;;;;5052406;28;20021;-57
2021/04/07 09:29:29;;;;;;;10.77;2.40;;;6.80;99.90;;;;;;5052468;28;20385;-57
2021/04/07 09:31:55;;;;;;;11.60;2.45;;;6.90;99.90;;;;;;5052008;28;20025;-57
2021/04/07 09:34:21;;;;;;;15.23;2.40;;;7.10;99.90;;;;;;5050893;28;20033;-57
2021/04/07 09:36:49;;;;;;;17.25;2.75;;;7.20;99.90;;;;;;5052240;28;20547;-57
2021/04/07 09:39:22;;;;;;;9.50;2.40;;;7.60;99.90;;;;;;5052637;28;20021;-57
2021/04/07 09:41:48;;;;;;;11.85;2.50;;;7.90;99.90;;;;;;5052491;28;20029;-58
2021/04/07 09:44:16;;;;;;;12.05;2.88;;;8.30;99.90;;;;;;5052249;28;20052;-58
2021/04/07 09:46:55;;;;;;;10.02;2.42;;;8.60;99.90;;;;;;5052084;28;20071;-58
2021/04/07 09:49:23;;;;;;;9.00;2.60;;;9.00;99.90;;;;;;5050180;28;20029;-58
2021/04/07 09:51:49;;;;;;;8.75;2.63;;;9.30;99.90;;;;;;5050391;28;20083;-58
2021/04/07 09:54:15;;;;;;;12.00;3.03;;;9.30;99.30;;;;;;5051785;28;20112;-58
2021/04/07 09:56:52;;;;;;;10.15;2.80;;;9.10;99.00;;;;;;5051604;28;20104;-58
2021/04/07 09:59:19;;;;;;;12.90;2.72;;;8.60;99.90;;;;;;5051760;28;20450;-58
2021/04/07 10:01:45;;;;;;;13.55;2.95;;;8.70;99.90;;;;;;5050291;28;20032;-58
2021/04/07 10:04:11;;;;;;;10.45;2.95;;;8.20;99.90;;;;;;5051538;28;20075;-58
2021/04/07 10:06:38;;;;;;;13.32;3.10;;;7.90;99.90;;;;;;5051922;28;20074;-58
2021/04/07 10:09:07;;;;;;;10.25;2.80;;;7.80;99.90;;;;;;5051569;28;20029;-58
2021/04/07 10:11:37;;;;;;;11.65;2.88;;;7.90;99.90;;;;;;5049843;28;20035;-59
2021/04/07 10:14:03;;;;;;;15.32;3.15;;;7.70;99.90;;;;;;5051329;28;20025;-58
2021/04/07 10:16:34;;;;;;;10.50;2.83;;;7.30;99.90;;;;;;5051238;28;20024;-58
2021/04/07 10:19:00;;;;;;;14.40;3.13;;;7.20;99.90;;;;;;5051488;28;20427;-58
2021/04/07 10:21:27;;;;;;;14.65;3.40;;;7.20;99.90;;;;;;5049821;28;20371;-58
2021/04/07 10:23:56;;;;;;;15.00;2.97;;;7.20;99.90;;;;;;5051046;28;20151;-58
2021/04/07 10:26:22;;;;;;;14.45;3.38;;;7.00;99.90;;;;;;5050941;28;20024;-57
2021/04/07 10:29:21;;;;;;;12.38;3.40;;;6.90;99.90;;;;;;5049675;28;20017;-58
2021/04/07 10:31:55;;;;;;;13.38;3.63;;;6.70;99.90;;;;;;5050957;28;20049;-58
2021/04/07 10:34:34;;;;;;;14.73;3.70;;;6.60;99.90;;;;;;5050725;28;20032;-58
2021/04/07 10:37:02;;;;;;;12.93;3.15;;;6.60;99.90;;;;;;5050990;28;20543;-58
2021/04/07 10:39:48;;;;;;;13.73;3.33;;;6.60;99.90;;;;;;5049598;28;20742;-58
2021/04/07 10:42:18;;;;;;;16.17;3.28;;;6.70;99.90;;;;;;5050981;28;20037;-58
2021/04/07 10:44:45;;;;;;;15.43;3.47;;;6.70;99.90;;;;;;5049598;28;20506;-58
2021/04/07 10:47:17;;;;;;;14.25;3.22;;;6.80;99.90;;;;;;5051210;28;20025;-58
2021/04/07 10:49:56;;;;;;;11.93;3.47;;;7.00;99.90;;;;;;5051251;28;20045;-58
2021/04/07 10:52:37;;;;;;;16.52;3.55;;;7.10;99.90;;;;;;5050941;28;20029;-58
2021/04/07 10:55:12;;;;;;;15.95;3.72;;;7.00;99.90;;;;;;5049432;28;20501;-58
2021/04/07 10:57:40;;;;;;;21.67;3.65;;;6.90;99.90;;;;;;5051006;28;20059;-58
2021/04/07 11:00:11;;;;;;;14.25;3.80;;;6.70;99.90;;;;;;5050929;28;20374;-58
2021/04/07 11:02:56;;;;;;;18.77;3.05;;;6.70;99.90;;;;;;5050714;28;20033;-58
2021/04/07 11:05:24;;;;;;;18.88;3.50;;;6.70;99.90;;;;;;5050657;28;20072;-58
2021/04/07 11:08:06;;;;;;;15.73;2.85;;;6.50;99.90;;;;;;5051086;28;20078;-58
2021/04/07 11:10:48;;;;;;;19.63;3.15;;;6.50;99.90;;;;;;5050750;28;20490;-58
2021/04/07 11:13:18;;;;;;;11.48;2.78;;;6.50;99.90;;;;;;5050712;28;20055;-58
2021/04/07 11:15:45;;;;;;;12.82;3.00;;;6.50;99.90;;;;;;5050825;28;20074;-58
2021/04/07 11:18:10;;;;;;;14.45;3.33;;;6.60;99.90;;;;;;5050739;28;20029;-58
2021/04/07 11:20:39;;;;;;;16.73;2.58;;;6.60;99.90;;;;;;5050614;28;20419;-58
2021/04/07 11:23:04;;;;;;;15.75;3.47;;;6.60;99.90;;;;;;5050733;28;20033;-58
2021/04/07 11:25:32;;;;;;;13.30;3.00;;;6.70;99.90;;;;;;5050330;28;20123;-58
2021/04/07 11:27:58;;;;;;;12.10;2.67;;;6.80;99.90;;;;;;5049489;28;20049;-58
2021/04/07 11:30:26;;;;;;;9.90;2.97;;;6.60;99.90;;;;;;5050670;28;20021;-58
2021/04/07 11:33:00;;;;;;;20.45;3.15;;;6.50;99.90;;;;;;5050905;28;20029;-58
2021/04/07 11:35:31;;;;;;;19.95;3.72;;;6.40;99.90;;;;;;5049697;28;20032;-58
2021/04/07 11:38:05;;;;;;;16.85;3.33;;;6.30;99.90;;;;;;5050549;28;20106;-59
2021/04/07 11:43:04;;;;;;;35.85;4.25;;;6.40;99.90;;;;;;5054038;28;20021;-58
2021/04/07 11:45:30;;;;;;;13.00;2.90;;;6.40;99.90;;;;;;5054178;28;20025;-58
2021/04/07 11:47:55;;;;;;;14.65;4.20;;;6.60;99.90;;;;;;5054176;28;20028;-59
2021/04/07 11:50:21;;;;;;;14.88;3.40;;;6.80;99.90;;;;;;5052655;28;20053;-59
2021/04/07 11:52:47;;;;;;;12.88;2.90;;;7.00;99.90;;;;;;5053641;28;20112;-59
2021/04/07 11:55:13;;;;;;;15.35;2.80;;;7.20;99.90;;;;;;5053640;28;20025;-59
2021/04/07 11:57:39;;;;;;;19.80;3.60;;;7.40;99.90;;;;;;5053905;28;20033;-59
2021/04/07 12:00:07;;;;;;;17.88;3.40;;;7.50;99.90;;;;;;5054320;28;20032;-60
2021/04/07 12:02:34;;;;;;;12.65;2.95;;;7.50;99.90;;;;;;5055060;28;20021;-59
2021/04/07 12:05:00;;;;;;;11.48;2.40;;;7.60;99.90;;;;;;5053747;28;20021;-59
2021/04/07 12:07:26;;;;;;;13.68;2.55;;;7.70;99.90;;;;;;5053946;28;20298;-59
2021/04/07 12:09:51;;;;;;;13.82;2.72;;;7.60;99.90;;;;;;5053501;28;20108;-59
2021/04/07 12:12:17;;;;;;;11.05;2.75;;;7.70;99.90;;;;;;5052191;28;20402;-59
2021/04/07 12:14:43;;;;;;;12.77;2.20;;;7.80;99.90;;;;;;5053426;28;20052;-59
2021/04/07 12:17:08;;;;;;;12.52;2.67;;;7.60;99.90;;;;;;5063374;28;20028;-59
2021/04/07 12:19:35;;;;;;;10.27;2.40;;;7.80;99.90;;;;;;5072958;28;20100;-59
2021/04/07 12:22:00;;;;;;;25.30;3.42;;;8.10;99.90;;;;;;5072020;28;20025;-59
2021/04/07 12:24:26;;;;;;;8.32;2.53;;;8.50;99.90;;;;;;5073138;28;20165;-59
2021/04/07 12:26:52;;;;;;;14.45;2.47;;;8.50;99.80;;;;;;5073525;28;20025;-59
2021/04/07 12:29:17;;;;;;;8.35;2.17;;;8.30;99.50;;;;;;5073028;28;20028;-59
2021/04/07 12:31:43;;;;;;;8.50;2.20;;;8.30;99.80;;;;;;5071737;28;20028;-59
2021/04/07 12:34:10;;;;;;;6.63;1.92;;;8.20;99.30;;;;;;5073191;28;20374;-59
2021/04/07 12:36:36;;;;;;;10.43;2.50;;;8.20;99.60;;;;;;5073545;28;20028;-59
2021/04/07 12:39:03;;;;;;;11.23;2.10;;;9.10;97.50;;;;;;5073110;28;20043;-59
2021/04/07 12:41:53;;;;;;;5.75;1.92;;;10.40;94.10;;;;;;5071639;28;20025;-59
2021/04/07 12:44:19;;;;;;;8.80;2.70;;;10.10;91.80;;;;;;5072960;28;20170;-59
2021/04/07 12:46:44;;;;;;;13.35;3.30;;;9.90;91.30;;;;;;5073051;28;20517;-59
2021/04/07 12:49:10;;;;;;;7.00;2.40;;;10.20;90.00;;;;;;5072680;28;20539;-59
2021/04/07 12:51:36;;;;;;;8.15;2.40;;;10.50;84.50;;;;;;5071800;28;20063;-59
2021/04/07 12:54:01;;;;;;;4.72;1.85;;;9.80;86.10;;;;;;5072394;28;20074;-59
2021/04/07 12:56:28;;;;;;;6.60;2.35;;;10.10;87.20;;;;;;5072738;28;20460;-59